createdAt,value
2023-05-01T00:00:15.775Z,4.63
2023-05-01T00:01:50.554Z,4.60
2023-05-01T00:03:24.290Z,4.58
2023-05-01T00:04:59.360Z,4.69
2023-05-01T00:06:32.665Z,4.34
2023-05-01T00:08:06.416Z,4.56
2023-05-01T00:09:40.294Z,4.20
2023-05-01T00:11:14.770Z,4.28
2023-05-01T00:12:47.988Z,4.34
2023-05-01T00:14:23.901Z,4.19
2023-05-01T00:15:57.278Z,4.43
2023-05-01T00:17:31.165Z,4.40
2023-05-01T00:19:05.613Z,4.59
2023-05-01T00:20:39.150Z,4.56
2023-05-01T00:22:13.969Z,4.56
2023-05-01T00:23:48.121Z,4.70
2023-05-01T00:25:22.652Z,4.36
2023-05-01T00:26:55.978Z,4.58
2023-05-01T00:28:29.528Z,4.62
2023-05-01T00:30:02.136Z,4.64
2023-05-01T00:31:35.650Z,4.57
2023-05-01T00:33:09.806Z,4.71
2023-05-01T00:34:43.328Z,4.79
2023-05-01T00:36:15.860Z,4.71
2023-05-01T00:37:48.435Z,4.79
2023-05-01T00:39:41.441Z,4.39
2023-05-01T00:41:14.599Z,5.20
2023-05-01T00:42:47.832Z,5.24
2023-05-01T00:44:20.931Z,5.22
2023-05-01T00:45:54.299Z,5.20
2023-05-01T00:47:28.192Z,4.63
2023-05-01T00:49:05.306Z,4.93
2023-05-01T00:50:38.825Z,4.98
2023-05-01T00:52:12.289Z,5.22
2023-05-01T00:53:48.189Z,5.05
2023-05-01T00:55:20.931Z,4.77
2023-05-01T00:56:54.340Z,4.97
2023-05-01T00:58:27.490Z,5.21
2023-05-01T01:00:00.941Z,5.20
2023-05-01T01:01:34.756Z,5.01
2023-05-01T01:03:08.590Z,5.18
2023-05-01T01:04:42.036Z,5.01
2023-05-01T01:06:16.688Z,4.92
2023-05-01T01:07:51.693Z,4.99
2023-05-01T01:09:27.785Z,4.88
2023-05-01T01:11:01.597Z,4.84
2023-05-01T01:12:34.892Z,5.26
2023-05-01T01:14:08.332Z,5.12
2023-05-01T01:15:42.870Z,4.54
2023-05-01T01:17:16.505Z,4.87
2023-05-01T01:18:50.082Z,4.95
2023-05-01T01:20:23.167Z,5.07
2023-05-01T01:21:56.377Z,4.76
2023-05-01T01:23:30.163Z,4.89
2023-05-01T01:25:03.130Z,5.10
2023-05-01T01:26:36.260Z,5.08
2023-05-01T01:28:09.610Z,4.66
2023-05-01T01:29:44.583Z,4.44
2023-05-01T01:31:19.344Z,4.73
2023-05-01T01:32:52.601Z,4.73
2023-05-01T01:34:27.052Z,4.75
2023-05-01T01:36:01.410Z,4.50
2023-05-01T01:37:35.528Z,4.43
2023-05-01T01:39:09.718Z,4.43
2023-05-01T01:40:43.833Z,4.98
2023-05-01T01:42:18.190Z,4.52
2023-05-01T01:43:51.203Z,4.73
2023-05-01T01:45:24.538Z,4.76
2023-05-01T01:46:57.853Z,4.89
2023-05-01T01:48:31.319Z,4.85
2023-05-01T01:50:04.791Z,4.62
2023-05-01T01:51:38.570Z,4.48
2023-05-01T01:53:12.136Z,4.55
2023-05-01T01:54:46.031Z,4.62
2023-05-01T01:56:19.735Z,4.80
2023-05-01T01:57:52.957Z,4.49
2023-05-01T01:59:26.218Z,4.55
2023-05-01T02:01:00.330Z,4.57
2023-05-01T02:02:33.953Z,4.64
2023-05-01T02:04:07.797Z,4.61
2023-05-01T02:05:41.194Z,4.33
2023-05-01T02:07:16.383Z,4.38
2023-05-01T02:08:49.978Z,4.54
2023-05-01T02:10:23.350Z,4.81
2023-05-01T02:11:57.130Z,4.74
2023-05-01T02:13:31.020Z,4.61
2023-05-01T02:15:04.275Z,4.19
2023-05-01T02:16:37.589Z,4.46
2023-05-01T02:18:11.601Z,4.24
2023-05-01T02:19:44.835Z,3.97
2023-05-01T02:21:18.509Z,4.73
2023-05-01T02:22:52.033Z,4.41
2023-05-01T02:24:25.326Z,4.24
2023-05-01T02:25:58.551Z,4.43
2023-05-01T02:27:31.849Z,3.85
2023-05-01T02:29:05.022Z,3.99
2023-05-01T02:30:38.105Z,3.96
2023-05-01T02:32:10.952Z,4.21
2023-05-01T02:33:44.864Z,4.22
2023-05-01T02:35:18.075Z,4.14
2023-05-01T02:36:51.272Z,3.96
2023-05-01T02:38:24.650Z,4.11
2023-05-01T02:39:58.424Z,4.05
2023-05-01T02:41:31.603Z,4.28
2023-05-01T02:43:04.786Z,3.96
2023-05-01T02:44:38.110Z,4.19
2023-05-01T02:46:12.433Z,4.32
2023-05-01T02:47:45.874Z,4.42
2023-05-01T02:49:19.299Z,4.19
2023-05-01T02:50:52.162Z,4.18
2023-05-01T02:52:26.072Z,3.99
2023-05-01T02:53:59.235Z,4.18
2023-05-01T02:55:32.358Z,4.09
2023-05-01T02:57:05.636Z,4.03
2023-05-01T02:58:40.898Z,4.26
2023-05-01T03:00:14.341Z,4.12
2023-05-01T03:01:49.016Z,4.17
2023-05-01T03:03:22.448Z,4.45
2023-05-01T03:04:55.654Z,4.23
2023-05-01T03:06:29.126Z,4.25
2023-05-01T03:08:02.068Z,4.30
2023-05-01T03:09:35.110Z,3.93
2023-05-01T03:11:08.285Z,4.13
2023-05-01T03:12:41.225Z,4.10
2023-05-01T03:14:14.536Z,4.36
2023-05-01T03:15:47.936Z,4.30
2023-05-01T03:17:21.447Z,3.89
2023-05-01T03:18:53.709Z,3.92
2023-05-01T03:20:25.890Z,3.60
2023-05-01T03:21:58.072Z,3.63
2023-05-01T03:23:29.614Z,3.58
2023-05-01T03:25:01.596Z,3.55
2023-05-01T03:26:33.002Z,3.59
2023-05-01T03:28:04.352Z,3.55
2023-05-01T03:29:35.815Z,3.57
2023-05-01T03:31:07.085Z,3.79
2023-05-01T03:32:38.638Z,3.58
2023-05-01T03:34:09.911Z,3.99
2023-05-01T03:35:41.610Z,3.87
2023-05-01T03:37:13.602Z,3.69
2023-05-01T03:38:44.945Z,3.83
2023-05-01T03:40:16.437Z,3.99
2023-05-01T03:41:48.066Z,3.76
2023-05-01T03:43:19.601Z,3.97
2023-05-01T03:44:50.994Z,4.22
2023-05-01T03:46:22.476Z,4.06
2023-05-01T03:47:53.903Z,4.04
2023-05-01T03:49:25.571Z,3.96
2023-05-01T03:50:56.998Z,4.16
2023-05-01T03:52:28.317Z,4.12
2023-05-01T03:53:59.681Z,4.29
2023-05-01T03:55:30.898Z,4.43
2023-05-01T03:57:02.233Z,4.60
2023-05-01T03:58:33.512Z,4.50
2023-05-01T04:00:04.771Z,4.52
2023-05-01T04:01:36.338Z,3.99
2023-05-01T04:03:07.784Z,3.86
2023-05-01T04:04:39.446Z,4.81
2023-05-01T04:06:10.894Z,4.19
2023-05-01T04:07:42.411Z,4.29
2023-05-01T04:09:13.796Z,3.93
2023-05-01T04:10:45.069Z,4.02
2023-05-01T04:12:16.496Z,4.13
2023-05-01T04:13:48.892Z,3.81
2023-05-01T04:15:20.319Z,3.95
2023-05-01T04:16:51.827Z,4.22
2023-05-01T04:18:23.246Z,4.05
2023-05-01T04:19:54.896Z,3.97
2023-05-01T04:21:26.324Z,3.75
2023-05-01T04:22:57.744Z,3.71
2023-05-01T04:24:29.060Z,3.77
2023-05-01T04:26:00.497Z,3.76
2023-05-01T04:27:31.912Z,3.68
2023-05-01T04:29:03.520Z,4.00
2023-05-01T04:30:35.238Z,3.87
2023-05-01T04:32:06.603Z,3.41
2023-05-01T04:33:38.103Z,3.76
2023-05-01T04:35:09.357Z,3.77
2023-05-01T04:36:40.704Z,3.77
2023-05-01T04:38:12.002Z,3.66
2023-05-01T04:39:43.560Z,3.68
2023-05-01T04:41:14.906Z,3.61
2023-05-01T04:42:46.131Z,3.52
2023-05-01T04:44:17.471Z,3.37
2023-05-01T04:45:48.715Z,3.41
2023-05-01T04:47:20.036Z,3.47
2023-05-01T04:48:51.470Z,3.56
2023-05-01T04:50:22.736Z,3.54
2023-05-01T04:51:54.087Z,3.58
2023-05-01T04:53:25.401Z,3.49
2023-05-01T04:54:56.851Z,4.05
2023-05-01T04:56:28.251Z,3.49
2023-05-01T04:57:59.506Z,3.54
2023-05-01T04:59:30.719Z,3.42
2023-05-01T05:01:02.099Z,3.54
2023-05-01T05:02:33.493Z,3.36
2023-05-01T05:04:04.921Z,3.72
2023-05-01T05:05:36.350Z,3.58
2023-05-01T05:07:07.677Z,3.52
2023-05-01T05:08:38.961Z,3.47
2023-05-01T05:10:10.169Z,3.53
2023-05-01T05:11:41.503Z,3.49
2023-05-01T05:13:12.738Z,3.70
2023-05-01T05:14:44.000Z,3.78
2023-05-01T05:16:15.395Z,3.66
2023-05-01T05:17:46.790Z,3.57
2023-05-01T05:19:18.077Z,3.75
2023-05-01T05:20:49.388Z,3.54
2023-05-01T05:22:20.762Z,3.45
2023-05-01T05:23:52.074Z,3.55
2023-05-01T05:25:23.419Z,3.68
2023-05-01T05:26:56.751Z,3.98
2023-05-01T05:28:28.261Z,3.93
2023-05-01T05:29:59.598Z,3.52
2023-05-01T05:31:30.964Z,3.66
2023-05-01T05:33:02.276Z,3.75
2023-05-01T05:34:33.688Z,3.79
2023-05-01T05:36:05.097Z,3.89
2023-05-01T05:37:36.605Z,3.93
2023-05-01T05:39:08.147Z,3.81
2023-05-01T05:40:39.470Z,3.75
2023-05-01T05:42:10.846Z,3.69
2023-05-01T05:43:42.242Z,3.74
2023-05-01T05:45:13.549Z,4.02
2023-05-01T05:46:44.836Z,3.75
2023-05-01T05:48:16.310Z,3.48
2023-05-01T05:49:48.472Z,3.61
2023-05-01T05:51:19.842Z,3.51
2023-05-01T05:52:51.179Z,3.41
2023-05-01T05:54:22.479Z,3.56
2023-05-01T05:55:53.837Z,3.65
2023-05-01T05:57:25.125Z,3.85
2023-05-01T05:58:56.814Z,3.55
2023-05-01T06:00:28.229Z,3.54
2023-05-01T06:02:00.445Z,3.57
2023-05-01T06:03:33.221Z,3.90
2023-05-01T06:05:40.578Z,3.73
2023-05-01T06:07:12.985Z,3.52
2023-05-01T06:09:04.384Z,3.60
2023-05-01T06:10:35.813Z,3.36
2023-05-01T06:12:07.268Z,3.71
2023-05-01T06:13:38.737Z,3.74
2023-05-01T06:15:10.026Z,3.80
2023-05-01T06:16:41.325Z,3.50
2023-05-01T06:18:12.656Z,3.85
2023-05-01T06:19:44.299Z,3.51
2023-05-01T06:21:15.587Z,3.44
2023-05-01T06:22:46.864Z,3.62
2023-05-01T06:24:18.133Z,3.86
2023-05-01T06:25:49.422Z,3.58
2023-05-01T06:27:20.720Z,3.67
2023-05-01T06:28:52.027Z,3.74
2023-05-01T06:30:23.274Z,3.48
2023-05-01T06:31:54.758Z,3.49
2023-05-01T06:33:31.076Z,3.41
2023-05-01T06:35:02.530Z,3.35
2023-05-01T06:36:34.012Z,3.21
2023-05-01T06:38:05.398Z,3.56
2023-05-01T06:39:46.727Z,3.46
2023-05-01T06:41:18.144Z,3.89
2023-05-01T06:42:49.977Z,3.76
2023-05-01T06:44:21.333Z,4.02
2023-05-01T06:45:52.740Z,4.10
2023-05-01T06:47:24.241Z,3.93
2023-05-01T06:48:55.631Z,4.01
2023-05-01T06:50:27.298Z,4.25
2023-05-01T06:51:58.936Z,4.44
2023-05-01T06:53:30.202Z,4.38
2023-05-01T06:55:01.530Z,4.35
2023-05-01T06:56:33.292Z,4.32
2023-05-01T06:58:12.544Z,4.22
2023-05-01T06:59:54.731Z,4.03
2023-05-01T07:01:26.516Z,3.89
2023-05-01T07:03:08.465Z,3.92
2023-05-01T07:04:50.516Z,3.81
2023-05-01T07:06:22.233Z,3.53
2023-05-01T07:08:17.644Z,3.52
2023-05-01T07:10:00.094Z,3.24
2023-05-01T07:11:31.927Z,3.04
2023-05-01T07:13:03.204Z,3.06
2023-05-01T07:14:59.939Z,3.35
2023-05-01T07:16:31.509Z,3.18
2023-05-01T07:18:03.395Z,3.10
2023-05-01T07:19:39.844Z,3.03
2023-05-01T07:21:11.316Z,3.10
2023-05-01T07:22:42.891Z,3.36
2023-05-01T07:24:14.448Z,2.94
2023-05-01T07:25:47.356Z,2.84
2023-05-01T07:27:21.733Z,2.59
2023-05-01T07:29:08.407Z,2.96
2023-05-01T07:30:40.838Z,2.96
2023-05-01T07:32:18.335Z,2.44
2023-05-01T07:33:50.983Z,2.59
2023-05-01T07:35:22.737Z,2.32
2023-05-01T07:36:54.100Z,2.30
2023-05-01T07:38:49.226Z,1.98
2023-05-01T07:40:20.641Z,2.13
2023-05-01T07:41:53.217Z,2.04
2023-05-01T07:43:24.712Z,1.88
2023-05-01T07:44:56.220Z,1.96
2023-05-01T07:47:07.156Z,1.83
2023-05-01T07:48:44.051Z,2.26
2023-05-01T07:50:15.415Z,1.95
2023-05-01T07:51:46.839Z,1.93
2023-05-01T07:53:18.358Z,2.11
2023-05-01T07:54:49.909Z,1.97
2023-05-01T07:56:33.619Z,2.13
2023-05-01T07:58:05.046Z,1.88
2023-05-01T07:59:36.382Z,1.99
2023-05-01T08:01:07.757Z,1.87
2023-05-01T08:02:39.128Z,2.06
2023-05-01T08:04:10.691Z,2.11
2023-05-01T08:05:42.349Z,2.24
2023-05-01T08:07:13.859Z,2.30
2023-05-01T08:08:45.242Z,2.20
2023-05-01T08:10:16.681Z,2.20
2023-05-01T08:11:48.166Z,1.91
2023-05-01T08:13:19.555Z,1.84
2023-05-01T08:14:50.876Z,2.42
2023-05-01T08:16:23.415Z,2.17
2023-05-01T08:17:55.258Z,2.26
2023-05-01T08:19:26.815Z,2.14
2023-05-01T08:21:23.221Z,2.00
2023-05-01T08:22:54.766Z,2.44
2023-05-01T08:24:26.267Z,2.21
2023-05-01T08:27:41.388Z,2.23
2023-05-01T08:29:13.216Z,2.02
2023-05-01T08:30:54.685Z,2.02
2023-05-01T08:32:26.310Z,1.95
2023-05-01T08:33:59.842Z,2.20
2023-05-01T08:35:31.357Z,2.45
2023-05-01T08:37:02.732Z,2.38
2023-05-01T08:38:34.277Z,2.68
2023-05-01T08:40:06.067Z,2.81
2023-05-01T08:41:37.654Z,3.01
2023-05-01T08:43:09.148Z,2.97
2023-05-01T08:44:40.521Z,3.08
2023-05-01T08:46:12.079Z,3.24
2023-05-01T08:47:43.980Z,2.99
2023-05-01T08:49:20.575Z,2.70
2023-05-01T08:50:52.081Z,2.94
2023-05-01T08:52:23.499Z,2.94
2023-05-01T08:54:47.567Z,2.51
2023-05-01T08:56:19.473Z,2.07
2023-05-01T08:57:51.091Z,2.31
2023-05-01T08:59:22.450Z,2.36
2023-05-01T09:00:53.820Z,2.56
2023-05-01T09:02:25.340Z,2.49
2023-05-01T09:03:56.962Z,2.44
2023-05-01T09:05:28.739Z,2.44
2023-05-01T09:07:00.157Z,2.27
2023-05-01T09:08:31.573Z,2.43
2023-05-01T09:10:02.975Z,2.46
2023-05-01T09:11:34.730Z,2.20
2023-05-01T09:13:06.088Z,1.99
2023-05-01T09:14:37.554Z,2.09
2023-05-01T09:16:09.058Z,2.38
2023-05-01T09:17:40.618Z,2.06
2023-05-01T09:19:12.050Z,1.94
2023-05-01T09:20:43.434Z,2.04
2023-05-01T09:22:14.825Z,1.94
2023-05-01T09:24:01.623Z,1.79
2023-05-01T09:25:33.073Z,1.72
2023-05-01T09:27:04.436Z,1.93
2023-05-01T09:28:35.971Z,1.72
2023-05-01T09:30:07.357Z,1.69
2023-05-01T09:31:38.891Z,1.78
2023-05-01T09:33:10.627Z,1.59
2023-05-01T09:34:42.168Z,1.48
2023-05-01T09:36:34.386Z,1.49
2023-05-01T09:38:05.764Z,1.55
2023-05-01T09:39:37.243Z,1.54
2023-05-01T09:41:08.722Z,1.46
2023-05-01T09:42:40.633Z,1.71
2023-05-01T09:44:25.452Z,1.61
2023-05-01T09:45:56.863Z,1.50
2023-05-01T09:47:28.391Z,1.53
2023-05-01T09:48:59.950Z,1.56
2023-05-01T09:50:31.600Z,1.62
2023-05-01T09:52:03.031Z,1.48
2023-05-01T09:53:34.423Z,1.49
2023-05-01T09:55:05.785Z,1.45
2023-05-01T09:56:37.207Z,1.57
2023-05-01T09:58:08.653Z,1.54
2023-05-01T09:59:40.186Z,1.65
2023-05-01T10:01:16.836Z,1.47
2023-05-01T10:02:53.735Z,1.66
2023-05-01T10:04:25.768Z,1.53
2023-05-01T10:05:57.378Z,1.61
2023-05-01T10:07:31.142Z,1.57
2023-05-01T10:09:02.658Z,1.56
2023-05-01T10:10:34.068Z,1.69
2023-05-01T10:12:05.447Z,1.63
2023-05-01T10:13:36.885Z,1.48
2023-05-01T10:15:23.338Z,1.43
2023-05-01T10:16:56.933Z,1.24
2023-05-01T10:18:28.375Z,1.43
2023-05-01T10:20:00.140Z,1.21
2023-05-01T10:21:31.624Z,1.32
2023-05-01T10:23:03.074Z,1.24
2023-05-01T10:24:34.524Z,1.23
2023-05-01T10:26:07.137Z,1.15
2023-05-01T10:27:38.719Z,1.18
2023-05-01T10:29:10.178Z,1.37
2023-05-01T10:30:41.569Z,1.45
2023-05-01T10:32:12.946Z,1.43
2023-05-01T10:33:44.344Z,1.38
2023-05-01T10:35:16.869Z,1.35
2023-05-01T10:36:48.269Z,1.21
2023-05-01T10:38:19.763Z,1.17
2023-05-01T10:39:51.158Z,1.15
2023-05-01T10:41:22.713Z,1.04
2023-05-01T10:42:54.151Z,1.01
2023-05-01T10:44:25.595Z,0.98
2023-05-01T10:45:57.047Z,1.17
2023-05-01T10:47:28.709Z,1.20
2023-05-01T10:49:00.210Z,1.36
2023-05-01T10:50:31.669Z,1.21
2023-05-01T10:52:03.029Z,1.37
2023-05-01T10:53:39.796Z,1.38
2023-05-01T10:55:11.230Z,1.33
2023-05-01T10:56:42.664Z,1.29
2023-05-01T10:58:14.116Z,1.43
2023-05-01T10:59:45.724Z,1.25
2023-05-01T11:01:17.281Z,1.16
2023-05-01T11:02:58.935Z,1.31
2023-05-01T11:04:30.386Z,1.50
2023-05-01T11:06:02.023Z,1.43
2023-05-01T11:07:48.586Z,1.39
2023-05-01T11:09:20.213Z,1.25
2023-05-01T11:10:51.737Z,1.27
2023-05-01T11:12:23.231Z,1.26
2023-05-01T11:14:04.624Z,1.40
2023-05-01T11:15:36.185Z,1.32
2023-05-01T11:17:07.731Z,1.49
2023-05-01T11:18:39.381Z,1.40
2023-05-01T11:20:10.835Z,1.24
2023-05-01T11:21:42.265Z,1.18
2023-05-01T11:23:13.746Z,0.95
2023-05-01T11:25:06.005Z,1.11
2023-05-01T11:26:37.452Z,1.07
2023-05-01T11:28:08.848Z,0.90
2023-05-01T11:29:40.442Z,1.02
2023-05-01T11:31:11.844Z,0.93
2023-05-01T11:32:43.328Z,0.97
2023-05-01T11:34:14.846Z,0.99
2023-05-01T11:35:46.345Z,1.30
2023-05-01T11:37:17.821Z,1.71
2023-05-01T11:38:49.417Z,6.95
2023-05-01T11:40:20.907Z,2.57
2023-05-01T11:41:52.442Z,1.16
2023-05-01T11:43:23.948Z,1.20
2023-05-01T11:44:55.651Z,1.13
2023-05-01T11:46:27.448Z,1.08
2023-05-01T11:48:00.559Z,1.27
2023-05-01T11:49:34.400Z,1.23
2023-05-01T11:51:05.798Z,1.35
2023-05-01T11:52:37.395Z,1.17
2023-05-01T11:54:08.805Z,1.18
2023-05-01T11:55:40.518Z,1.56
2023-05-01T11:57:12.126Z,9.49
2023-05-01T11:58:43.560Z,5.76
2023-05-01T12:00:15.749Z,3.01
2023-05-01T12:01:52.253Z,2.06
2023-05-01T12:03:23.908Z,1.53
2023-05-01T12:04:55.693Z,1.13
2023-05-01T12:06:42.157Z,1.32
2023-05-01T12:08:13.648Z,1.49
2023-05-01T12:09:50.129Z,1.25
2023-05-01T12:11:21.598Z,1.98
2023-05-01T12:12:53.238Z,1.31
2023-05-01T12:14:36.674Z,2.60
2023-05-01T12:16:08.343Z,2.02
2023-05-01T12:17:44.979Z,1.70
2023-05-01T12:19:16.455Z,1.20
2023-05-01T12:20:57.941Z,1.32
2023-05-01T12:22:29.479Z,1.60
2023-05-01T12:24:01.115Z,1.28
2023-05-01T12:25:53.973Z,1.26
2023-05-01T12:27:25.459Z,1.52
2023-05-01T12:29:01.874Z,1.83
2023-05-01T12:30:43.263Z,2.01
2023-05-01T12:32:14.808Z,4.44
2023-05-01T12:33:46.280Z,4.25
2023-05-01T12:35:25.119Z,2.01
2023-05-01T12:37:06.480Z,1.46
2023-05-01T12:38:47.932Z,1.44
2023-05-01T12:40:20.895Z,1.36
2023-05-01T12:41:52.324Z,1.29
2023-05-01T12:43:38.528Z,1.35
2023-05-01T12:45:10.044Z,1.36
2023-05-01T12:47:03.843Z,1.11
2023-05-01T12:48:35.527Z,1.23
2023-05-01T12:50:07.036Z,1.32
2023-05-01T12:51:38.871Z,1.16
2023-05-01T12:53:20.359Z,1.20
2023-05-01T12:54:51.811Z,1.21
2023-05-01T12:56:23.241Z,1.24
2023-05-01T12:57:59.869Z,1.28
2023-05-01T12:59:31.469Z,1.21
2023-05-01T13:01:03.022Z,1.19
2023-05-01T13:02:39.622Z,1.08
2023-05-01T13:04:11.478Z,1.17
2023-05-01T13:05:52.970Z,1.03
2023-05-01T13:07:24.495Z,1.27
2023-05-01T13:09:01.252Z,1.22
2023-05-01T13:10:32.915Z,1.29
2023-05-01T13:12:05.339Z,1.27
2023-05-01T13:13:36.798Z,1.18
2023-05-01T13:15:08.427Z,1.27
2023-05-01T13:16:39.924Z,1.22
2023-05-01T13:18:11.517Z,1.28
2023-05-01T13:19:52.956Z,1.09
2023-05-01T13:21:24.419Z,1.23
2023-05-01T13:22:55.876Z,1.15
2023-05-01T13:24:27.262Z,1.12
2023-05-01T13:26:08.670Z,1.14
2023-05-01T13:27:40.147Z,1.09
2023-05-01T13:29:11.592Z,1.30
2023-05-01T13:30:43.035Z,1.24
2023-05-01T13:32:14.602Z,1.15
2023-05-01T13:33:51.255Z,1.14
2023-05-01T13:35:32.680Z,1.22
2023-05-01T13:37:19.321Z,1.27
2023-05-01T13:38:50.830Z,1.16
2023-05-01T13:40:22.556Z,1.08
2023-05-01T13:42:03.922Z,1.05
2023-05-01T13:43:45.370Z,1.14
2023-05-01T13:45:21.913Z,1.11
2023-05-01T13:46:53.438Z,1.13
2023-05-01T13:48:30.944Z,1.21
2023-05-01T13:50:19.602Z,1.27
2023-05-01T13:51:51.090Z,1.13
2023-05-01T13:53:22.880Z,1.16
2023-05-01T13:54:54.461Z,1.18
2023-05-01T13:56:25.946Z,1.30
2023-05-01T13:57:57.472Z,1.28
2023-05-01T13:59:28.950Z,1.15
2023-05-01T14:01:00.674Z,1.18
2023-05-01T14:02:53.040Z,1.00
2023-05-01T14:04:31.237Z,1.08
2023-05-01T14:06:02.839Z,1.16
2023-05-01T14:07:54.315Z,1.14
2023-05-01T14:09:25.823Z,1.10
2023-05-01T14:11:17.508Z,1.17
2023-05-01T14:12:49.012Z,1.18
2023-05-01T14:14:25.455Z,1.11
2023-05-01T14:16:13.263Z,1.13
2023-05-01T14:17:44.903Z,1.04
2023-05-01T14:19:26.342Z,1.06
2023-05-01T14:21:18.428Z,1.01
2023-05-01T14:22:55.920Z,1.08
2023-05-01T14:24:27.377Z,0.99
2023-05-01T14:26:09.100Z,0.93
2023-05-01T14:27:41.098Z,1.24
2023-05-01T14:29:12.526Z,1.04
2023-05-01T14:31:03.965Z,1.14
2023-05-01T14:32:35.478Z,1.11
2023-05-01T14:34:08.151Z,1.07
2023-05-01T14:35:49.839Z,1.00
2023-05-01T14:37:21.384Z,1.04
2023-05-01T14:39:11.352Z,0.99
2023-05-01T14:40:55.997Z,1.09
2023-05-01T14:42:27.919Z,0.88
2023-05-01T14:44:00.953Z,1.02
2023-05-01T14:45:37.810Z,1.12
2023-05-01T14:47:09.263Z,1.07
2023-05-01T14:48:40.807Z,1.00
2023-05-01T14:50:12.415Z,1.04
2023-05-01T14:51:44.817Z,1.00
2023-05-01T14:53:16.378Z,1.13
2023-05-01T14:54:48.083Z,1.09
2023-05-01T14:56:19.913Z,1.08
2023-05-01T14:57:51.620Z,1.14
2023-05-01T14:59:23.146Z,1.00
2023-05-01T15:00:54.672Z,1.15
2023-05-01T15:02:26.347Z,1.27
2023-05-01T15:03:58.843Z,1.07
2023-05-01T15:05:32.376Z,0.99
2023-05-01T15:07:24.863Z,1.15
2023-05-01T15:08:56.389Z,1.08
2023-05-01T15:10:27.835Z,1.03
2023-05-01T15:11:59.378Z,1.27
2023-05-01T15:13:31.132Z,1.56
2023-05-01T15:15:02.718Z,1.56
2023-05-01T15:16:34.364Z,1.54
2023-05-01T15:18:06.102Z,1.11
2023-05-01T15:19:37.829Z,1.15
2023-05-01T15:21:09.232Z,1.25
2023-05-01T15:23:05.930Z,1.03
2023-05-01T15:24:40.434Z,1.10
2023-05-01T15:26:27.794Z,1.05
2023-05-01T15:28:10.587Z,1.08
2023-05-01T15:30:11.061Z,1.18
2023-05-01T15:32:10.812Z,1.21
2023-05-01T15:34:02.878Z,1.24
2023-05-01T15:35:47.479Z,1.19
2023-05-01T15:37:29.193Z,1.30
2023-05-01T15:39:08.209Z,1.43
2023-05-01T15:41:00.876Z,1.38
2023-05-01T15:42:49.996Z,1.33
2023-05-01T15:44:30.236Z,1.27
2023-05-01T15:46:33.497Z,1.43
2023-05-01T15:48:10.614Z,1.47
2023-05-01T15:49:43.345Z,1.39
2023-05-01T15:51:14.712Z,1.33
2023-05-01T15:52:46.182Z,1.26
2023-05-01T15:54:17.590Z,1.42
2023-05-01T15:55:49.463Z,1.69
2023-05-01T15:57:21.353Z,1.53
2023-05-01T15:58:52.832Z,1.49
2023-05-01T16:00:24.431Z,1.46
2023-05-01T16:01:55.901Z,1.44
2023-05-01T16:03:27.522Z,1.61
2023-05-01T16:04:59.675Z,1.84
2023-05-01T16:06:31.377Z,1.87
2023-05-01T16:08:02.807Z,1.96
2023-05-01T16:09:34.613Z,2.10
2023-05-01T16:11:05.990Z,2.09
2023-05-01T16:12:37.892Z,2.13
2023-05-01T16:14:14.371Z,2.18
2023-05-01T16:15:45.760Z,2.07
2023-05-01T16:17:17.168Z,2.27
2023-05-01T16:18:50.063Z,2.17
2023-05-01T16:20:21.557Z,1.97
2023-05-01T16:21:53.078Z,1.79
2023-05-01T16:23:24.482Z,2.44
2023-05-01T16:25:01.095Z,1.84
2023-05-01T16:26:40.946Z,2.15
2023-05-01T16:28:23.423Z,1.81
2023-05-01T16:29:54.833Z,1.78
2023-05-01T16:31:27.944Z,1.49
2023-05-01T16:32:59.562Z,1.94
2023-05-01T16:34:30.955Z,2.18
2023-05-01T16:36:02.324Z,2.41
2023-05-01T16:37:34.091Z,2.31
2023-05-01T16:39:05.601Z,2.44
2023-05-01T16:40:37.296Z,2.29
2023-05-01T16:42:08.587Z,2.66
2023-05-01T16:43:39.904Z,2.61
2023-05-01T16:45:11.281Z,2.49
2023-05-01T16:46:42.706Z,2.28
2023-05-01T16:48:14.361Z,2.28
2023-05-01T16:49:45.754Z,2.57
2023-05-01T16:51:17.215Z,2.85
2023-05-01T16:52:48.922Z,3.13
2023-05-01T16:54:20.420Z,3.32
2023-05-01T16:55:51.754Z,3.16
2023-05-01T16:57:23.513Z,3.00
2023-05-01T16:58:55.096Z,3.27
2023-05-01T17:00:26.461Z,3.58
2023-05-01T17:01:57.998Z,3.88
2023-05-01T17:03:29.410Z,3.44
2023-05-01T17:05:00.736Z,3.21
2023-05-01T17:06:32.094Z,2.72
2023-05-01T17:08:03.432Z,2.78
2023-05-01T17:09:34.850Z,3.01
2023-05-01T17:11:06.318Z,3.12
2023-05-01T17:12:37.636Z,3.10
2023-05-01T17:14:08.979Z,3.24
2023-05-01T17:15:40.926Z,3.29
2023-05-01T17:17:12.451Z,4.09
2023-05-01T17:18:43.739Z,4.00
2023-05-01T17:20:15.093Z,4.17
2023-05-01T17:21:46.536Z,4.09
2023-05-01T17:23:17.879Z,4.41
2023-05-01T17:24:49.286Z,4.10
2023-05-01T17:26:20.755Z,4.14
2023-05-01T17:27:52.190Z,4.38
2023-05-01T17:29:23.552Z,4.43
2023-05-01T17:30:55.106Z,4.73
2023-05-01T17:32:36.351Z,4.48
2023-05-01T17:34:08.609Z,4.44
2023-05-01T17:35:39.921Z,4.22
2023-05-01T17:37:36.355Z,4.51
2023-05-01T17:39:31.419Z,4.69
2023-05-01T17:41:04.020Z,5.27
2023-05-01T17:42:35.480Z,5.42
2023-05-01T17:46:10.667Z,5.53
2023-05-01T17:47:47.039Z,5.32
2023-05-01T17:49:18.827Z,4.99
2023-05-01T17:50:50.115Z,4.77
2023-05-01T17:52:21.748Z,4.76
2023-05-01T17:53:53.576Z,4.91
2023-05-01T17:55:34.997Z,5.00
2023-05-01T17:57:06.386Z,4.97
2023-05-01T17:58:37.865Z,4.91
2023-05-01T18:00:09.139Z,4.89
2023-05-01T18:01:40.545Z,4.94
2023-05-01T18:03:12.008Z,5.24
2023-05-01T18:05:06.133Z,5.24
2023-05-01T18:06:37.666Z,5.21
2023-05-01T18:08:09.281Z,4.78
2023-05-01T18:09:55.679Z,4.51
2023-05-01T18:11:27.091Z,4.52
2023-05-01T18:12:58.444Z,4.35
2023-05-01T18:14:30.101Z,4.41
2023-05-01T18:16:01.525Z,4.68
2023-05-01T18:17:32.804Z,4.68
2023-05-01T18:19:04.296Z,4.35
2023-05-01T18:20:35.728Z,4.32
2023-05-01T18:22:07.096Z,3.97
2023-05-01T18:24:03.174Z,4.15
2023-05-01T18:25:34.724Z,3.66
2023-05-01T18:27:07.376Z,3.72
2023-05-01T18:28:38.929Z,3.91
2023-05-01T18:30:10.304Z,4.20
2023-05-01T18:31:53.924Z,4.14
2023-05-01T18:33:34.094Z,4.06
2023-05-01T18:35:05.700Z,4.25
2023-05-01T18:36:37.083Z,4.56
2023-05-01T18:38:30.800Z,4.26
2023-05-01T18:40:15.385Z,4.27
2023-05-01T18:41:57.060Z,4.69
2023-05-01T18:43:28.350Z,4.68
2023-05-01T18:45:00.011Z,4.63
2023-05-01T18:46:32.635Z,4.88
2023-05-01T18:48:04.133Z,4.91
2023-05-01T18:49:35.674Z,5.48
2023-05-01T18:51:09.505Z,5.33
2023-05-01T18:52:59.493Z,5.13
2023-05-01T18:54:31.158Z,4.81
2023-05-01T18:56:02.983Z,4.66
2023-05-01T18:57:46.794Z,4.64
2023-05-01T18:59:26.157Z,4.14
2023-05-01T19:01:07.725Z,4.15
2023-05-01T19:02:49.041Z,4.47
2023-05-01T19:04:29.133Z,4.23
2023-05-01T19:06:00.820Z,4.03
2023-05-01T19:07:54.069Z,4.04
2023-05-01T19:09:36.723Z,3.80
2023-05-01T19:11:08.476Z,3.71
2023-05-01T19:12:40.257Z,3.41
2023-05-01T19:14:12.191Z,3.47
2023-05-01T19:15:44.090Z,3.64
2023-05-01T19:17:16.932Z,3.37
2023-05-01T19:18:49.324Z,3.46
2023-05-01T19:20:20.789Z,3.38
2023-05-01T19:22:33.857Z,3.27
2023-05-01T19:24:05.388Z,3.13
2023-05-01T19:25:37.647Z,3.55
2023-05-01T19:27:15.128Z,3.21
2023-05-01T19:28:46.598Z,3.33
2023-05-01T19:30:33.291Z,3.29
2023-05-01T19:32:04.751Z,3.38
2023-05-01T19:33:49.650Z,3.61
2023-05-01T19:35:26.586Z,3.46
2023-05-01T19:36:58.022Z,3.86
2023-05-01T19:38:29.458Z,3.83
2023-05-01T19:40:02.014Z,4.10
2023-05-01T19:47:11.559Z,4.61
2023-05-01T19:48:43.068Z,4.90
2023-05-01T19:50:14.446Z,4.66
2023-05-01T19:51:45.990Z,4.80
2023-05-01T19:53:17.608Z,5.17
2023-05-01T19:54:49.154Z,5.16
2023-05-01T19:56:20.508Z,5.16
2023-05-01T19:57:51.977Z,5.51
2023-05-01T19:59:23.395Z,5.71
2023-05-01T20:00:54.868Z,5.45
2023-05-01T20:02:26.445Z,5.81
2023-05-01T20:03:57.978Z,6.06
2023-05-01T20:05:29.708Z,5.88
2023-05-01T20:07:01.550Z,6.17
2023-05-01T20:08:32.991Z,6.09
2023-05-01T20:10:04.454Z,6.40
2023-05-01T20:11:35.794Z,6.55
2023-05-01T20:13:07.305Z,6.52
2023-05-01T20:14:38.710Z,6.58
2023-05-01T20:16:44.712Z,6.82
2023-05-01T20:18:16.288Z,6.54
2023-05-01T20:19:47.701Z,6.53
2023-05-01T20:21:18.973Z,6.67
2023-05-01T20:22:50.335Z,6.62
2023-05-01T20:24:21.847Z,6.88
2023-05-01T20:25:53.157Z,6.83
2023-05-01T20:27:24.557Z,6.67
2023-05-01T20:28:55.879Z,7.20
2023-05-01T20:30:27.146Z,7.25
2023-05-01T20:31:58.409Z,7.33
2023-05-01T20:33:29.929Z,7.47
2023-05-01T20:35:01.621Z,7.85
2023-05-01T20:36:33.503Z,7.47
2023-05-01T20:38:04.930Z,7.72
2023-05-01T20:39:36.251Z,7.90
2023-05-01T20:41:07.916Z,7.84
2023-05-01T20:42:39.355Z,7.92
2023-05-01T20:44:10.746Z,8.17
2023-05-01T20:45:42.270Z,8.42
2023-05-01T20:47:13.708Z,8.05
2023-05-01T20:48:50.324Z,8.55
2023-05-01T20:50:21.938Z,8.65
2023-05-01T20:51:53.318Z,8.61
2023-05-01T20:53:24.712Z,8.69
2023-05-01T20:54:56.247Z,8.77
2023-05-01T20:56:27.603Z,8.79
2023-05-01T20:57:58.960Z,8.97
2023-05-01T20:59:31.095Z,8.78
2023-05-01T21:01:16.700Z,8.35